Ana Sayfa
METAR-TAF:

METAR-TAF

Havaalanları :

Port of Spain, Trinidad, Trinidad ve Tobago

Enlem: 10-37N, Boylam: 061-21W, yükseklik: 12 m

Güncel hava durumu gözlemi

Rapor saat 11:00 UTC de 35 dakika önce yapıldı.
Rüzgar doğu/güneydoğudan 8 kt
Sıcaklık 26°C
Nem 84%
Basınç 1014 hPa
Görüş mesafesi 10 km veya daha fazla
1800 ft yükseklikte az bulutlu

METAR: TTPP 261100Z 11008KT 9999 FEW018 26/23 Q1014 NOSIG

Saat: 07:35 (11:35 UTC)

Tahmin

Rapor saat 04:00 UTC de 7 saat ve 35 dakika önce yapıldı.
Ayın 26'si saat 06 UTC'den ayın 27'si saat 06 UTC'ye kadar geçerli Tahmin
Rüzgar kuzeydan kt
Görüş mesafesi 10 km veya daha fazla
1600 ft yükseklikte az bulutlu
Dönüşüyor
ayın 26'si saat 12 UTC'den ayın 26'si saat 14 UTC'ye kadar
Rüzgar doğudan 15 kt
Dönüşüyor
ayın 27'si saat 00 UTC'den ayın 27'si saat 02 UTC'ye kadar
Rüzgar doğudan 5 kt

TAF: TTPP 260400Z 2606/2706 00000KT 9999 FEW016 BECMG 2612/2614 09015KT BECMG 2700/2702 09005KT

4.000'den fazla havaalanı için hava durumu gözlemleri ve tahminleri (METAR ve TAF raporları).

Kullanılabilir istasyonlar harita üzerinde sarı ve kırmızı noktalarla gösterilir.

İstasyonun adını görmek için fareyi noktanın üzerinde gezdirin.

Sonrasında hava gözlem ve tahminlerini görmek için tıklayın.

Haritayı değiştirmek için: yaklaştırmak için siyah artı işaretli yeşil düğmeye ve uzaklaştırmak için de eksi işaretli düğmeye hızla tıklayın; bitişik haritalar için yeşil okları kullanın.


METAR-TAF: